Time;durP1;ratioP1;P1;durP2;ratioP2;P2;SDS_P1;SDS_P2;PMS_P1;PMS_P2;Temp;Humidity;BMP_temperature;BMP_pressure;BME280_temperature;BME280_humidity;BME280_pressure;Samples;Min_cycle;Max_cycle;Signal;HPM_P1;HPM_P2
2021/04/06 00:01:52;;;;;;;6.20;1.50;;;0.40;87.80;;;;;;5015557;28;20218;-81
2021/04/06 00:04:24;;;;;;;6.57;2.37;;;0.30;88.00;;;;;;4997879;28;20181;-81
2021/04/06 00:07:01;;;;;;;7.43;2.43;;;0.30;88.00;;;;;;5015553;28;20188;-81
2021/04/06 00:09:33;;;;;;;5.80;2.40;;;0.30;88.10;;;;;;5015565;28;20198;-81
2021/04/06 00:12:05;;;;;;;8.57;2.40;;;0.30;88.20;;;;;;5015467;28;20176;-81
2021/04/06 00:14:38;;;;;;;9.47;2.37;;;0.30;88.00;;;;;;5015149;28;20242;-81
2021/04/06 00:17:12;;;;;;;4.93;1.77;;;0.30;88.30;;;;;;5015557;28;20191;-81
2021/04/06 00:19:47;;;;;;;8.27;1.80;;;0.30;88.10;;;;;;5015273;28;20257;-81
2021/04/06 00:22:27;;;;;;;5.03;1.73;;;0.30;88.30;;;;;;5015096;28;20167;-81
2021/04/06 00:25:03;;;;;;;5.80;1.83;;;0.30;88.30;;;;;;4997556;28;20176;-80
2021/04/06 00:27:41;;;;;;;9.67;2.10;;;0.30;88.10;;;;;;4997800;28;20192;-80
2021/04/06 00:30:12;;;;;;;8.03;2.50;;;0.30;88.20;;;;;;5015132;28;20198;-80
2021/04/06 00:32:42;;;;;;;10.45;2.40;;;0.30;88.50;;;;;;5015425;28;20682;-80
2021/04/06 00:35:11;;;;;;;10.37;2.00;;;0.30;88.60;;;;;;5015172;28;20194;-80
2021/04/06 00:37:50;;;;;;;9.97;2.57;;;0.30;88.60;;;;;;5014995;28;20228;-81
2021/04/06 00:40:23;;;;;;;5.63;2.00;;;0.40;88.60;;;;;;5050948;23;20756;-81
2021/04/06 00:43:03;;;;;;;16.10;3.70;;;0.40;88.60;;;;;;5034341;28;20174;-81
2021/04/06 00:45:38;;;;;;;8.50;2.47;;;0.40;88.40;;;;;;5034208;28;20691;-81
2021/04/06 00:48:20;;;;;;;8.73;2.27;;;0.40;88.40;;;;;;5034111;28;20167;-81
2021/04/06 00:51:08;;;;;;;12.70;2.60;;;0.30;88.80;;;;;;5033960;28;20697;-81
2021/04/06 00:54:03;;;;;;;5.90;2.27;;;0.30;89.00;;;;;;5034140;28;20247;-81
2021/04/06 00:56:34;;;;;;;6.57;2.10;;;0.30;89.30;;;;;;5033970;28;20179;-81
2021/04/06 00:59:07;;;;;;;9.03;2.60;;;0.30;89.30;;;;;;5016317;28;20200;-81
2021/04/06 01:01:35;;;;;;;8.60;2.23;;;0.30;89.40;;;;;;5033657;28;20236;-81
2021/04/06 01:04:08;;;;;;;6.67;2.17;;;0.30;89.60;;;;;;5015993;28;20175;-81
2021/04/06 01:07:01;;;;;;;9.07;3.37;;;0.30;89.90;;;;;;5034145;28;20188;-81
2021/04/06 01:09:34;;;;;;;6.03;2.17;;;0.30;89.90;;;;;;5033571;28;20202;-81
2021/04/06 01:12:14;;;;;;;6.60;2.07;;;0.30;90.00;;;;;;5033632;28;20633;-81
2021/04/06 01:14:47;;;;;;;5.17;2.40;;;0.40;90.20;;;;;;5015932;28;20182;-81
2021/04/06 01:17:22;;;;;;;15.73;2.70;;;0.40;90.10;;;;;;5033722;28;20168;-81
2021/04/06 01:20:04;;;;;;;4.80;2.00;;;0.50;89.90;;;;;;5033561;28;20198;-81
2021/04/06 01:22:44;;;;;;;11.57;2.30;;;0.50;89.60;;;;;;5033560;28;20183;-81
2021/04/06 01:25:24;;;;;;;4.73;2.03;;;0.50;89.50;;;;;;5033506;28;20167;-81
2021/04/06 01:28:12;;;;;;;9.10;2.27;;;0.50;89.50;;;;;;5033529;28;20736;-81
2021/04/06 01:30:45;;;;;;;6.33;2.53;;;0.50;89.50;;;;;;5033307;28;20299;-81
2021/04/06 01:33:20;;;;;;;6.37;1.90;;;0.50;89.40;;;;;;5015768;28;20574;-81
2021/04/06 01:35:57;;;;;;;5.23;2.23;;;0.50;89.30;;;;;;5033605;28;20184;-82
2021/04/06 01:38:36;;;;;;;2.83;1.63;;;0.60;89.00;;;;;;5033522;28;20168;-81
2021/04/06 01:41:07;;;;;;;5.57;2.67;;;0.50;89.20;;;;;;5033295;28;20243;-81
2021/04/06 01:43:46;;;;;;;13.53;2.33;;;0.50;89.30;;;;;;5015694;28;20168;-81
2021/04/06 01:46:19;;;;;;;8.13;2.57;;;0.50;89.20;;;;;;5033413;28;20260;-81
2021/04/06 01:48:54;;;;;;;8.77;2.50;;;0.40;89.10;;;;;;5015519;28;20202;-81
2021/04/06 01:51:22;;;;;;;9.57;2.43;;;0.40;89.10;;;;;;5033350;28;20192;-81
2021/04/06 01:53:57;;;;;;;7.03;2.50;;;0.40;89.20;;;;;;5015680;28;20181;-81
2021/04/06 01:56:37;;;;;;;11.20;2.57;;;0.40;89.30;;;;;;5015615;28;20572;-81
2021/04/06 01:59:15;;;;;;;7.80;3.37;;;0.40;89.40;;;;;;5033328;28;20173;-81
2021/04/06 02:01:53;;;;;;;9.30;2.33;;;0.40;89.70;;;;;;5015412;28;20259;-81
2021/04/06 02:04:28;;;;;;;4.93;1.93;;;0.50;89.70;;;;;;5033235;28;20183;-81
2021/04/06 02:07:04;;;;;;;6.77;2.63;;;0.50;89.80;;;;;;5033589;28;20198;-81
2021/04/06 02:09:37;;;;;;;8.73;2.87;;;0.50;89.80;;;;;;5032922;28;20199;-81
2021/04/06 02:12:14;;;;;;;10.43;2.70;;;0.50;90.10;;;;;;5033086;28;20172;-81
2021/04/06 02:15:01;;;;;;;2.50;1.80;;;0.50;90.00;;;;;;5018579;28;20191;-81
2021/04/06 02:17:33;;;;;;;6.33;2.10;;;0.60;90.40;;;;;;5036921;28;20183;-81
2021/04/06 02:20:06;;;;;;;8.80;2.50;;;0.60;91.00;;;;;;5019034;28;20199;-81
2021/04/06 02:22:37;;;;;;;6.73;2.73;;;0.50;91.40;;;;;;5036804;28;20183;-82
2021/04/06 02:25:18;;;;;;;3.97;2.17;;;0.70;91.70;;;;;;5019023;28;20184;-81
2021/04/06 02:27:45;;;;;;;4.03;2.30;;;0.70;91.90;;;;;;5019069;28;20538;-81
2021/04/06 02:30:18;;;;;;;13.30;3.07;;;0.60;91.90;;;;;;5036529;28;20214;-81
2021/04/06 02:33:01;;;;;;;17.47;3.93;;;0.60;91.90;;;;;;5036675;28;20259;-81
2021/04/06 02:35:34;;;;;;;16.20;3.50;;;0.60;92.10;;;;;;5036766;28;20157;-82
2021/04/06 02:38:05;;;;;;;13.27;3.30;;;0.70;92.10;;;;;;5036567;28;20172;-82
2021/04/06 02:40:38;;;;;;;7.63;2.70;;;0.60;92.10;;;;;;5018665;28;20299;-81
2021/04/06 02:43:08;;;;;;;4.90;2.67;;;0.70;92.20;;;;;;5036538;28;20167;-81
2021/04/06 02:45:44;;;;;;;6.77;2.17;;;0.60;92.40;;;;;;5018591;28;20180;-82
2021/04/06 02:48:19;;;;;;;12.87;3.07;;;0.60;92.60;;;;;;5018728;28;20707;-81
2021/04/06 02:50:54;;;;;;;12.33;3.83;;;0.60;92.60;;;;;;5018406;28;20215;-81
2021/04/06 02:53:33;;;;;;;5.10;2.97;;;0.60;92.60;;;;;;5036412;28;20164;-82
2021/04/06 02:56:04;;;;;;;19.10;3.80;;;0.60;92.70;;;;;;5019012;28;20181;-82
2021/04/06 02:58:41;;;;;;;9.93;3.00;;;0.60;92.50;;;;;;5018480;28;20627;-81
2021/04/06 03:01:20;;;;;;;13.00;3.90;;;0.60;92.40;;;;;;5036289;28;20202;-82
2021/04/06 03:03:51;;;;;;;12.33;3.80;;;0.60;92.30;;;;;;5036126;28;20179;-82
2021/04/06 03:06:37;;;;;;;8.87;3.33;;;0.60;92.10;;;;;;5018363;28;20188;-81
2021/04/06 03:09:13;;;;;;;15.37;3.50;;;0.50;91.90;;;;;;5036060;28;20284;-81
2021/04/06 03:11:54;;;;;;;20.27;3.87;;;0.50;91.80;;;;;;5035977;28;20199;-81
2021/04/06 03:14:33;;;;;;;20.10;4.27;;;0.50;91.80;;;;;;5035859;28;20176;-81
2021/04/06 03:17:05;;;;;;;12.57;3.93;;;0.50;91.80;;;;;;5035845;28;20172;-81
2021/04/06 03:19:37;;;;;;;12.10;3.40;;;0.50;91.70;;;;;;5035734;28;20645;-81
2021/04/06 03:22:21;;;;;;;13.03;3.70;;;0.50;91.60;;;;;;5017950;28;20279;-82
2021/04/06 03:24:49;;;;;;;13.83;3.90;;;0.40;91.60;;;;;;5018178;28;20184;-81
2021/04/06 03:27:30;;;;;;;13.97;3.20;;;0.50;91.70;;;;;;5017977;28;20275;-81
2021/04/06 03:29:58;;;;;;;13.23;3.73;;;0.40;91.60;;;;;;5035438;28;20208;-82
2021/04/06 03:32:30;;;;;;;23.37;4.17;;;0.40;91.70;;;;;;5017751;28;20546;-81
2021/04/06 03:35:07;;;;;;;22.97;3.23;;;0.50;91.60;;;;;;5035924;28;20163;-81
2021/04/06 03:37:39;;;;;;;17.67;4.03;;;0.50;91.40;;;;;;5035550;28;20167;-82
2021/04/06 03:40:06;;;;;;;27.87;4.73;;;0.50;91.40;;;;;;5036016;28;20701;-82
2021/04/06 03:42:37;;;;;;;13.67;3.57;;;0.60;91.40;;;;;;5017560;28;20198;-81
2021/04/06 03:45:14;;;;;;;8.93;3.10;;;0.70;91.40;;;;;;5017728;28;20566;-81
2021/04/06 03:47:59;;;;;;;25.27;3.93;;;0.70;91.20;;;;;;5017371;28;20186;-81
2021/04/06 03:50:41;;;;;;;13.73;3.23;;;0.80;91.00;;;;;;5035167;28;20212;-82
2021/04/06 03:53:13;;;;;;;18.00;5.10;;;0.70;90.80;;;;;;5035418;28;20157;-81
2021/04/06 03:56:03;;;;;;;21.97;4.13;;;0.70;90.70;;;;;;5035547;28;20575;-81
2021/04/06 03:58:54;;;;;;;23.80;4.33;;;0.60;90.50;;;;;;5017732;28;20199;-81
2021/04/06 04:01:31;;;;;;;17.17;3.83;;;0.60;90.50;;;;;;5035237;28;20223;-82
2021/04/06 04:04:03;;;;;;;22.67;4.70;;;0.60;90.50;;;;;;5035001;28;20204;-81
2021/04/06 04:06:36;;;;;;;16.77;3.37;;;0.70;90.40;;;;;;5034874;28;20243;-82
2021/04/06 04:09:09;;;;;;;29.33;4.77;;;0.70;90.40;;;;;;5017507;28;20212;-82
2021/04/06 04:11:43;;;;;;;20.50;4.07;;;0.60;90.20;;;;;;5034698;28;20224;-81
2021/04/06 04:14:14;;;;;;;29.17;3.97;;;0.70;90.30;;;;;;5034857;28;20172;-81
2021/04/06 04:16:51;;;;;;;22.07;4.23;;;0.80;90.10;;;;;;5016906;28;20180;-82
2021/04/06 04:19:17;;;;;;;27.87;5.40;;;0.90;89.60;;;;;;5017789;28;20589;-82
2021/04/06 04:21:51;;;;;;;29.00;4.37;;;0.90;89.50;;;;;;5034633;28;20250;-82
2021/04/06 04:24:24;;;;;;;19.97;4.83;;;0.90;89.50;;;;;;5034680;28;20183;-81
2021/04/06 04:26:53;;;;;;;16.53;4.10;;;0.90;89.70;;;;;;5034626;28;20613;-82
2021/04/06 04:29:27;;;;;;;20.23;4.53;;;0.80;89.50;;;;;;5034416;28;20200;-82
2021/04/06 04:32:11;;;;;;;28.53;4.60;;;0.90;89.70;;;;;;5034421;28;20545;-82
2021/04/06 04:34:44;;;;;;;29.30;5.20;;;0.90;89.60;;;;;;5016755;28;20176;-82
2021/04/06 04:37:21;;;;;;;15.87;3.67;;;0.90;89.60;;;;;;5033757;28;20180;-82
2021/04/06 04:39:51;;;;;;;21.67;4.67;;;1.00;89.60;;;;;;5034382;28;20196;-82
2021/04/06 04:42:23;;;;;;;26.80;4.70;;;1.00;89.50;;;;;;5034311;28;20637;-81
2021/04/06 04:44:49;;;;;;;20.30;4.30;;;1.00;89.50;;;;;;5034149;28;20212;-82
2021/04/06 04:47:22;;;;;;;25.97;4.43;;;1.00;89.30;;;;;;5016338;28;20216;-82
2021/04/06 04:49:58;;;;;;;16.90;3.67;;;1.00;89.10;;;;;;5034271;28;20215;-81
2021/04/06 04:52:34;;;;;;;26.30;5.00;;;1.10;88.80;;;;;;5016305;28;20173;-82
2021/04/06 04:55:08;;;;;;;11.50;2.97;;;1.20;88.30;;;;;;5033970;28;20181;-82
2021/04/06 04:57:44;;;;;;;21.13;3.57;;;1.30;87.50;;;;;;5034027;28;20181;-82
2021/04/06 05:00:18;;;;;;;24.10;4.33;;;1.40;87.10;;;;;;5033829;28;20203;-82
2021/04/06 05:02:58;;;;;;;25.03;3.20;;;1.30;86.70;;;;;;5033983;28;20183;-82
2021/04/06 05:05:30;;;;;;;14.10;3.40;;;1.40;85.90;;;;;;5033884;28;20169;-82
2021/04/06 05:08:07;;;;;;;11.77;2.70;;;1.30;85.20;;;;;;5033797;28;20599;-82
2021/04/06 05:10:35;;;;;;;17.30;4.93;;;1.40;85.00;;;;;;5033707;28;20212;-81
2021/04/06 05:13:01;;;;;;;17.43;4.53;;;1.40;84.70;;;;;;5016194;28;20184;-82
2021/04/06 05:15:33;;;;;;;15.27;3.20;;;1.40;84.10;;;;;;5033666;28;20177;-82
2021/04/06 05:18:02;;;;;;;10.33;2.67;;;1.40;84.10;;;;;;5033617;28;20238;-83
2021/04/06 05:20:34;;;;;;;6.80;2.40;;;1.50;84.50;;;;;;5033498;28;20205;-82
2021/04/06 05:23:09;;;;;;;7.10;2.20;;;1.50;84.80;;;;;;5033768;28;20596;-82
2021/04/06 05:25:40;;;;;;;8.20;2.13;;;1.40;84.50;;;;;;5033811;28;20627;-82
2021/04/06 05:28:14;;;;;;;12.57;2.80;;;1.30;83.80;;;;;;5016414;28;20185;-81
2021/04/06 05:30:43;;;;;;;16.33;3.33;;;1.30;82.80;;;;;;5015793;28;20219;-82
2021/04/06 05:33:21;;;;;;;9.67;3.10;;;1.40;82.90;;;;;;5015758;28;20262;-82
2021/04/06 05:35:54;;;;;;;19.80;3.37;;;1.40;83.20;;;;;;5015667;28;20181;-82
2021/04/06 05:38:26;;;;;;;12.27;2.73;;;1.50;83.90;;;;;;5033371;28;20168;-81
2021/04/06 05:41:01;;;;;;;10.70;2.43;;;1.30;83.70;;;;;;5033188;28;20235;-82
2021/04/06 05:43:37;;;;;;;13.37;2.90;;;1.30;84.00;;;;;;5033351;28;20184;-82
2021/04/06 05:46:05;;;;;;;14.60;3.40;;;1.20;84.40;;;;;;5033275;28;20169;-82
2021/04/06 05:48:37;;;;;;;10.50;4.97;;;1.10;84.60;;;;;;5032712;28;20318;-82
2021/04/06 05:51:11;;;;;;;18.07;4.47;;;1.20;84.90;;;;;;5015620;28;20680;-82
2021/04/06 05:53:51;;;;;;;18.60;3.93;;;1.30;85.20;;;;;;5015498;28;20180;-82
2021/04/06 05:56:24;;;;;;;11.03;3.07;;;1.30;85.40;;;;;;5016032;28;20172;-82
2021/04/06 05:58:59;;;;;;;12.10;2.73;;;1.30;85.90;;;;;;5033210;28;20173;-82
2021/04/06 06:01:34;;;;;;;13.57;3.13;;;1.30;86.00;;;;;;5033166;28;20279;-82
2021/04/06 06:04:08;;;;;;;10.40;2.23;;;1.30;86.50;;;;;;5033099;28;20168;-82
2021/04/06 06:06:41;;;;;;;9.23;2.17;;;1.30;86.50;;;;;;5015507;28;20237;-82
2021/04/06 06:09:27;;;;;;;11.13;2.67;;;1.30;86.50;;;;;;5033072;28;20220;-81
2021/04/06 06:12:03;;;;;;;9.10;2.47;;;1.30;86.30;;;;;;5033067;28;20176;-82
2021/04/06 06:14:43;;;;;;;10.10;2.27;;;1.20;86.50;;;;;;5033107;28;20200;-82
2021/04/06 06:17:23;;;;;;;6.53;2.00;;;1.20;86.50;;;;;;5015338;28;20169;-82
2021/04/06 06:20:02;;;;;;;8.80;2.70;;;1.00;86.60;;;;;;5033054;28;20228;-82
2021/04/06 06:22:37;;;;;;;9.67;2.27;;;1.10;86.80;;;;;;5015212;28;20271;-81
2021/04/06 06:25:08;;;;;;;11.03;2.10;;;1.10;86.80;;;;;;5015199;28;20183;-82
2021/04/06 06:27:39;;;;;;;9.47;2.10;;;1.20;87.00;;;;;;5032992;28;20192;-81
2021/04/06 06:30:38;;;;;;;10.67;2.60;;;1.30;87.20;;;;;;5032613;28;20288;-82
2021/04/06 06:33:27;;;;;;;10.53;2.53;;;1.30;87.10;;;;;;5032946;28;20172;-82
2021/04/06 06:36:03;;;;;;;14.43;2.67;;;1.60;86.70;;;;;;5015210;28;20161;-82
2021/04/06 06:38:34;;;;;;;16.80;2.63;;;1.70;86.70;;;;;;5015042;28;20172;-82
2021/04/06 06:41:21;;;;;;;14.40;3.57;;;1.70;86.30;;;;;;5032806;28;20205;-82
2021/04/06 06:43:58;;;;;;;15.70;3.20;;;1.70;86.50;;;;;;5032851;28;20164;-81
2021/04/06 06:46:31;;;;;;;17.23;3.30;;;1.80;86.20;;;;;;5039551;23;20220;-82
2021/04/06 06:49:06;;;;;;;16.50;3.30;;;1.80;86.40;;;;;;5034408;28;20607;-82
2021/04/06 06:51:44;;;;;;;17.13;2.93;;;1.60;86.30;;;;;;5034539;28;20213;-82
2021/04/06 06:54:33;;;;;;;17.90;4.33;;;1.50;86.60;;;;;;5016578;28;20199;-82
2021/04/06 06:57:29;;;;;;;9.83;2.13;;;1.40;87.00;;;;;;5032890;28;20662;-82
2021/04/06 07:00:13;;;;;;;4.70;2.27;;;1.40;87.10;;;;;;5015856;28;20184;-82
2021/04/06 07:02:44;;;;;;;15.73;3.60;;;1.40;86.60;;;;;;5019814;28;20263;-82
2021/04/06 07:05:21;;;;;;;20.57;5.43;;;1.40;86.40;;;;;;5037369;28;20265;-82
2021/04/06 07:08:03;;;;;;;12.33;2.80;;;1.50;86.20;;;;;;5020258;28;20668;-82
2021/04/06 07:10:46;;;;;;;12.23;3.60;;;1.50;85.70;;;;;;5037949;28;20184;-82
2021/04/06 07:13:28;;;;;;;12.67;2.50;;;1.50;85.50;;;;;;5018656;28;20263;-82
2021/04/06 07:16:03;;;;;;;8.13;2.00;;;1.50;84.40;;;;;;5036572;28;20729;-82
2021/04/06 07:18:33;;;;;;;9.47;3.27;;;1.50;83.60;;;;;;5036849;28;20196;-82
2021/04/06 07:21:07;;;;;;;8.77;2.57;;;1.60;83.00;;;;;;5036870;28;20168;-82
2021/04/06 07:23:57;;;;;;;10.53;2.63;;;1.70;82.30;;;;;;5019121;28;20211;-82
2021/04/06 07:26:34;;;;;;;6.40;1.93;;;1.80;82.00;;;;;;5036768;28;20192;-82
2021/04/06 07:29:12;;;;;;;5.73;2.37;;;2.10;81.40;;;;;;5018170;28;20716;-81
2021/04/06 07:31:44;;;;;;;9.27;2.33;;;2.30;80.00;;;;;;5018929;28;20176;-82
2021/04/06 07:34:16;;;;;;;7.20;2.40;;;2.30;80.50;;;;;;5036724;28;20603;-82
2021/04/06 07:36:54;;;;;;;5.50;1.90;;;2.30;80.20;;;;;;5018133;28;20221;-82
2021/04/06 07:39:29;;;;;;;13.60;2.60;;;2.30;79.20;;;;;;5036585;28;20185;-82
2021/04/06 07:41:58;;;;;;;6.73;2.37;;;2.30;80.10;;;;;;5018902;28;20205;-82
2021/04/06 07:44:36;;;;;;;11.17;2.83;;;2.50;81.00;;;;;;5019160;28;20182;-82
2021/04/06 07:47:07;;;;;;;12.17;2.70;;;2.60;80.40;;;;;;5036727;28;20298;-82
2021/04/06 07:49:38;;;;;;;14.23;2.80;;;2.50;80.50;;;;;;5019243;28;20569;-82
2021/04/06 07:52:20;;;;;;;7.10;3.03;;;2.60;80.50;;;;;;5018788;28;20170;-82
2021/04/06 07:54:56;;;;;;;9.53;2.30;;;2.60;80.50;;;;;;5036680;28;20209;-82
2021/04/06 07:57:46;;;;;;;12.40;2.83;;;2.60;80.20;;;;;;5037080;28;20268;-82
2021/04/06 08:00:51;;;;;;;12.27;2.53;;;2.50;80.00;;;;;;5036876;28;20174;-82
2021/04/06 08:03:57;;;;;;;6.73;2.00;;;2.30;80.90;;;;;;5035797;28;20212;-83
2021/04/06 08:06:47;;;;;;;7.57;2.57;;;2.00;83.20;;;;;;5018159;28;20201;-83
2021/04/06 08:09:29;;;;;;;9.23;2.47;;;1.80;84.80;;;;;;5035565;28;20185;-83
2021/04/06 08:12:07;;;;;;;15.07;3.90;;;1.80;85.70;;;;;;5035163;28;20639;-83
2021/04/06 08:14:50;;;;;;;5.57;1.70;;;1.80;84.90;;;;;;5017982;28;20170;-82
2021/04/06 08:17:37;;;;;;;9.97;2.67;;;1.90;83.50;;;;;;5035429;28;20194;-83
2021/04/06 08:20:24;;;;;;;8.23;2.37;;;2.00;83.50;;;;;;5018546;28;20665;-83
2021/04/06 08:23:02;;;;;;;10.33;2.60;;;2.20;83.20;;;;;;5017467;28;20186;-83
2021/04/06 08:25:37;;;;;;;17.07;2.83;;;2.40;82.90;;;;;;5035298;28;20216;-83
2021/04/06 08:28:37;;;;;;;10.67;2.40;;;2.50;82.60;;;;;;5035378;28;20545;-83
2021/04/06 08:31:28;;;;;;;16.70;3.23;;;2.70;81.90;;;;;;5017991;28;20181;-83
2021/04/06 08:34:30;;;;;;;9.63;2.53;;;2.80;81.50;;;;;;5034625;28;20633;-83
2021/04/06 08:37:12;;;;;;;6.53;1.60;;;3.00;81.60;;;;;;5016864;28;20575;-83
2021/04/06 08:39:47;;;;;;;5.40;2.17;;;2.90;79.90;;;;;;5034511;28;20596;-83
2021/04/06 08:42:15;;;;;;;4.57;1.70;;;2.70;81.20;;;;;;5034321;28;20164;-83
2021/04/06 08:44:45;;;;;;;9.50;1.90;;;2.40;83.10;;;;;;5034194;28;20184;-84
2021/04/06 08:47:44;;;;;;;8.97;2.10;;;2.10;84.70;;;;;;5033991;28;20212;-83
2021/04/06 08:50:40;;;;;;;7.67;2.00;;;1.90;85.60;;;;;;5016369;28;20621;-83
2021/04/06 08:53:24;;;;;;;7.67;2.33;;;1.80;86.60;;;;;;5034231;28;20157;-83
2021/04/06 08:56:11;;;;;;;12.33;2.37;;;1.80;86.80;;;;;;5033936;28;20195;-83
2021/04/06 08:58:45;;;;;;;8.37;2.57;;;1.90;86.50;;;;;;5016652;28;20267;-83
2021/04/06 09:01:21;;;;;;;13.80;2.57;;;1.90;86.90;;;;;;5033850;28;20187;-84
2021/04/06 09:03:55;;;;;;;11.60;2.40;;;1.90;86.80;;;;;;5016987;28;20614;-83
2021/04/06 09:06:21;;;;;;;12.53;2.73;;;2.30;87.50;;;;;;5015997;28;20220;-84
2021/04/06 09:08:55;;;;;;;11.60;3.37;;;2.60;87.10;;;;;;5033701;28;20179;-84
2021/04/06 09:11:30;;;;;;;12.87;2.03;;;2.90;86.00;;;;;;5033744;28;20266;-85
2021/04/06 09:14:03;;;;;;;4.27;1.50;;;3.10;85.40;;;;;;5033678;28;20180;-84
2021/04/06 09:16:35;;;;;;;16.77;2.63;;;3.20;83.00;;;;;;5033706;28;20193;-84
2021/04/06 09:19:27;;;;;;;8.70;2.50;;;3.40;83.50;;;;;;5033922;28;20176;-83
2021/04/06 09:22:11;;;;;;;6.00;2.00;;;3.60;79.20;;;;;;5013779;28;20190;-84
2021/04/06 09:24:49;;;;;;;11.03;2.23;;;3.80;78.90;;;;;;5033246;28;20174;-84
2021/04/06 09:27:23;;;;;;;8.97;2.50;;;3.90;79.60;;;;;;5033410;28;20225;-84
2021/04/06 09:29:54;;;;;;;2.83;1.30;;;4.20;79.40;;;;;;5033374;28;20202;-84
2021/04/06 09:32:21;;;;;;;4.50;1.50;;;3.40;78.40;;;;;;5033620;28;20231;-83
2021/04/06 09:34:52;;;;;;;3.17;1.17;;;2.60;80.30;;;;;;5015656;28;20176;-83
2021/04/06 09:37:29;;;;;;;3.83;1.27;;;2.30;81.50;;;;;;5033306;28;20249;-82
2021/04/06 09:40:03;;;;;;;7.53;1.83;;;2.30;81.30;;;;;;5033624;28;20643;-83
2021/04/06 09:42:32;;;;;;;5.57;1.57;;;2.40;81.20;;;;;;5015742;28;20185;-82
2021/04/06 09:44:57;;;;;;;6.07;2.20;;;2.50;80.50;;;;;;5015817;28;20176;-83
2021/04/06 09:47:24;;;;;;;8.23;2.33;;;2.60;80.40;;;;;;5033846;28;20269;-83
2021/04/06 09:49:53;;;;;;;9.47;2.37;;;2.70;80.60;;;;;;5016956;28;20200;-85
2021/04/06 09:52:25;;;;;;;12.50;2.53;;;2.80;79.90;;;;;;5016960;28;20260;-84
2021/04/06 09:55:03;;;;;;;8.23;1.90;;;2.80;79.60;;;;;;5034896;28;20553;-83
2021/04/06 09:57:40;;;;;;;7.13;2.00;;;2.90;78.70;;;;;;5016482;28;20204;-83
2021/04/06 10:00:23;;;;;;;4.77;1.53;;;2.90;78.30;;;;;;5034480;28;20165;-85
2021/04/06 10:03:13;;;;;;;8.30;1.87;;;3.00;78.20;;;;;;5016082;28;20184;-86
2021/04/06 10:05:45;;;;;;;10.87;2.07;;;3.30;79.10;;;;;;5033571;28;20207;-85
2021/04/06 10:08:32;;;;;;;6.73;2.40;;;3.50;79.90;;;;;;5034356;28;20175;-85
2021/04/06 10:11:01;;;;;;;12.90;2.50;;;3.80;78.70;;;;;;5033984;28;20192;-83
2021/04/06 10:13:27;;;;;;;10.63;2.60;;;4.10;81.30;;;;;;5033154;28;20179;-83
2021/04/06 10:16:16;;;;;;;13.27;2.70;;;4.00;82.10;;;;;;5033218;28;20270;-83
2021/04/06 10:18:47;;;;;;;10.40;2.37;;;3.90;82.80;;;;;;5033211;28;20554;-83
2021/04/06 10:21:26;;;;;;;18.07;3.30;;;4.20;83.10;;;;;;5033040;28;20236;-83
2021/04/06 10:24:04;;;;;;;8.97;2.33;;;4.20;83.00;;;;;;5034806;28;20174;-82
2021/04/06 10:26:30;;;;;;;10.73;2.00;;;4.00;81.20;;;;;;5015101;28;20194;-83
2021/04/06 10:29:04;;;;;;;10.47;2.67;;;2.90;81.70;;;;;;5034299;28;20254;-83
2021/04/06 10:31:52;;;;;;;7.50;2.17;;;2.50;83.00;;;;;;5035391;28;20651;-85
2021/04/06 10:34:19;;;;;;;7.67;2.20;;;2.10;84.30;;;;;;5035121;28;20172;-85
2021/04/06 10:36:58;;;;;;;10.03;2.50;;;1.90;85.40;;;;;;5036697;28;20193;-83
2021/04/06 10:39:51;;;;;;;12.30;2.73;;;1.90;85.60;;;;;;5019062;28;20235;-83
2021/04/06 10:42:19;;;;;;;7.13;2.00;;;1.90;85.90;;;;;;5033436;28;20186;-84
2021/04/06 10:44:46;;;;;;;7.67;2.33;;;1.80;85.60;;;;;;5018651;28;20184;-83
2021/04/06 10:47:28;;;;;;;8.93;2.33;;;1.90;84.90;;;;;;5036380;28;20209;-83
2021/04/06 10:49:57;;;;;;;14.00;2.97;;;2.00;84.20;;;;;;5036729;28;20269;-83
2021/04/06 10:52:30;;;;;;;6.77;2.00;;;2.10;83.50;;;;;;5037807;28;20187;-83
2021/04/06 10:54:56;;;;;;;11.17;2.00;;;2.20;84.20;;;;;;5036650;28;20196;-84
2021/04/06 10:57:31;;;;;;;7.80;2.20;;;2.30;85.20;;;;;;5036932;28;20188;-84
2021/04/06 11:00:14;;;;;;;8.70;2.30;;;2.60;85.60;;;;;;5019035;28;20177;-83
2021/04/06 11:02:43;;;;;;;8.27;2.57;;;2.90;84.80;;;;;;5036796;28;20673;-83
2021/04/06 11:05:12;;;;;;;8.80;2.27;;;3.30;85.30;;;;;;5018597;28;20216;-82
2021/04/06 11:07:38;;;;;;;14.10;2.50;;;3.70;83.40;;;;;;5018439;28;20228;-82
2021/04/06 11:10:07;;;;;;;16.03;2.53;;;3.80;82.80;;;;;;5036697;28;20217;-84
2021/04/06 11:12:33;;;;;;;11.60;3.27;;;4.20;83.00;;;;;;5038279;28;20218;-83
2021/04/06 11:15:01;;;;;;;8.73;1.87;;;4.50;82.40;;;;;;5038120;28;20173;-82
2021/04/06 11:17:27;;;;;;;15.67;2.57;;;4.60;79.40;;;;;;5037982;28;20270;-84
2021/04/06 11:19:57;;;;;;;16.33;3.20;;;4.90;79.90;;;;;;5036605;28;20177;-83
2021/04/06 11:22:28;;;;;;;19.10;4.20;;;5.00;81.90;;;;;;5018000;28;20192;-83
2021/04/06 11:24:54;;;;;;;8.37;2.20;;;5.50;81.30;;;;;;5036964;28;20176;-83
2021/04/06 11:27:22;;;;;;;14.93;2.67;;;5.70;79.80;;;;;;5019342;28;20203;-82
2021/04/06 11:29:55;;;;;;;8.17;2.03;;;5.70;79.20;;;;;;5036352;28;20202;-82
2021/04/06 11:32:28;;;;;;;4.53;1.97;;;5.70;75.30;;;;;;5035912;28;20197;-82
2021/04/06 11:35:02;;;;;;;8.50;2.83;;;5.50;72.40;;;;;;5036630;28;20252;-82
2021/04/06 11:37:31;;;;;;;7.37;1.90;;;5.10;72.80;;;;;;5036550;28;20286;-83
2021/04/06 11:40:03;;;;;;;7.80;1.80;;;5.10;72.90;;;;;;5036527;28;20219;-83
2021/04/06 11:42:35;;;;;;;9.20;2.13;;;4.80;69.50;;;;;;5017996;28;20188;-82
2021/04/06 11:45:10;;;;;;;7.87;1.80;;;4.80;67.00;;;;;;5036452;28;20200;-82
2021/04/06 11:47:37;;;;;;;7.93;2.50;;;4.90;66.90;;;;;;5036484;28;20176;-83
2021/04/06 11:50:08;;;;;;;10.50;1.80;;;5.30;68.30;;;;;;5035828;28;20291;-83
2021/04/06 11:52:38;;;;;;;7.07;1.97;;;5.70;65.20;;;;;;5035829;28;20184;-82
2021/04/06 11:55:10;;;;;;;6.30;2.13;;;5.50;64.20;;;;;;5035168;28;20172;-82
2021/04/06 11:57:43;;;;;;;14.50;2.33;;;5.40;67.90;;;;;;5035485;28;20161;-82
2021/04/06 12:00:15;;;;;;;10.50;2.33;;;5.80;69.50;;;;;;5017516;28;20174;-82
2021/04/06 12:02:50;;;;;;;8.50;2.00;;;6.20;70.40;;;;;;5017165;28;20184;-82
2021/04/06 12:05:24;;;;;;;9.67;1.90;;;5.60;64.60;;;;;;5035259;28;20251;-82
2021/04/06 12:07:55;;;;;;;7.80;2.03;;;5.40;68.10;;;;;;5017711;28;20169;-82
2021/04/06 12:10:30;;;;;;;13.13;2.73;;;5.70;68.30;;;;;;5034790;28;20197;-82
2021/04/06 12:13:03;;;;;;;7.87;2.43;;;5.40;67.50;;;;;;5034928;28;20235;-83
2021/04/06 12:15:37;;;;;;;11.27;2.30;;;5.80;70.20;;;;;;5036518;28;20192;-82
2021/04/06 12:18:12;;;;;;;8.03;1.80;;;6.00;70.40;;;;;;5035968;28;20177;-83
2021/04/06 12:20:44;;;;;;;5.77;1.57;;;6.00;68.00;;;;;;5035583;28;20672;-83
2021/04/06 12:23:18;;;;;;;6.17;1.30;;;5.90;68.00;;;;;;5017975;28;20271;-83
2021/04/06 12:25:56;;;;;;;1.77;1.20;;;6.00;64.10;;;;;;5018335;28;20581;-83
2021/04/06 12:28:30;;;;;;;8.90;1.90;;;6.20;62.80;;;;;;5035562;28;20186;-82
2021/04/06 12:31:04;;;;;;;5.17;2.07;;;6.30;63.80;;;;;;5018263;28;20204;-83
2021/04/06 12:33:38;;;;;;;5.63;2.03;;;6.00;64.70;;;;;;5036195;28;20586;-82
2021/04/06 12:36:10;;;;;;;6.10;1.80;;;6.30;65.00;;;;;;5036154;28;20223;-83
2021/04/06 12:38:47;;;;;;;8.27;2.40;;;6.30;64.10;;;;;;5018389;28;20206;-82
2021/04/06 12:41:21;;;;;;;10.50;2.00;;;6.30;65.40;;;;;;5036791;28;20157;-83
2021/04/06 12:43:53;;;;;;;9.60;2.20;;;6.50;67.00;;;;;;5019178;28;20185;-83
2021/04/06 12:46:31;;;;;;;6.57;2.43;;;6.80;65.70;;;;;;5106135;23;20222;-82
2021/04/06 12:49:02;;;;;;;8.03;2.30;;;6.60;64.30;;;;;;5034215;28;20167;-83
2021/04/06 12:51:29;;;;;;;13.63;2.30;;;6.30;66.60;;;;;;5016439;28;20647;-82
2021/04/06 12:54:04;;;;;;;8.97;1.97;;;6.20;66.40;;;;;;5034167;28;20253;-82
2021/04/06 12:56:37;;;;;;;5.87;1.60;;;5.40;68.50;;;;;;5034058;28;20216;-83
2021/04/06 12:59:16;;;;;;;5.80;1.93;;;4.60;68.80;;;;;;5033542;28;20614;-82
2021/04/06 13:01:54;;;;;;;12.63;2.10;;;4.70;69.50;;;;;;5034089;28;20240;-82
2021/04/06 13:04:31;;;;;;;5.17;1.47;;;4.50;70.80;;;;;;5016233;28;20263;-82
2021/04/06 13:07:07;;;;;;;2.93;1.20;;;4.90;72.40;;;;;;5033999;28;20196;-82
2021/04/06 13:09:43;;;;;;;3.07;1.53;;;4.70;71.20;;;;;;5033766;28;20184;-82
2021/04/06 13:12:21;;;;;;;1.57;1.07;;;4.30;70.30;;;;;;5016651;28;20582;-82
2021/04/06 13:14:58;;;;;;;2.30;1.37;;;4.40;71.90;;;;;;5016044;28;20196;-83
2021/04/06 13:17:29;;;;;;;3.97;1.30;;;4.80;72.10;;;;;;5016078;28;20192;-82
2021/04/06 13:20:03;;;;;;;3.53;1.10;;;5.30;70.80;;;;;;5033963;28;20164;-82
2021/04/06 13:22:37;;;;;;;10.33;1.90;;;5.40;70.60;;;;;;5016013;28;20212;-82
2021/04/06 13:25:12;;;;;;;3.47;1.23;;;5.10;72.60;;;;;;5015813;28;20176;-82
2021/04/06 13:27:44;;;;;;;6.10;1.60;;;4.90;71.50;;;;;;5033501;28;20188;-82
2021/04/06 13:30:24;;;;;;;4.80;1.77;;;4.90;70.50;;;;;;5015727;28;20196;-82
2021/04/06 13:33:01;;;;;;;5.30;1.80;;;4.80;71.90;;;;;;5015745;28;20660;-82
2021/04/06 13:35:30;;;;;;;6.13;1.57;;;4.80;74.00;;;;;;5033435;28;20696;-82
2021/04/06 13:38:04;;;;;;;5.67;1.63;;;4.70;74.20;;;;;;5033495;28;20172;-82